Station: Coober Pedy Airport

  Atmospheric Gas Attenuation - ITU Rec 676-11   --------------- db/100km ---------------
Date Time Temp RH % AH g/m3 Dew Point Wind Direction Speed kph Gust kph Barometer mB Rainfall Since 9am 24GHz 47GHz 76GHz 122GHz 134GHz 241GHz
05 12:50 25.5 42 9.94 11.7 26 32 1008 0 21.8 24.5 38.9 102.3 99.9 345.3
05 12:40 24.7 54 12.22 14.8 35 41 1008.2 0 26.7 28.2 47.9 126.2 129.1 447.2
05 12:30 24.4 73 16.25 19.2 41 48 1008 0 35.2 35.0 64.8 171.4 184.5 640.6
05 12:20 24.2 71 15.62 18.6 41 44 1008 0 33.9 34.0 62.2 164.5 176.0 610.8
05 12:10 24.7 67 15.16 18.2 37 46 1008.2 0 32.9 33.0 59.9 158.2 168.4 584.4
05 12:00 24.8 68 15.48 18.5 39 50 1007.8 0 33.5 33.5 61.1 161.6 172.6 599.1
05 11:50 24.9 69 15.79 18.8 41 46 1008.2 0 34.2 34.0 62.4 165.0 176.8 613.7
05 11:40 25.4 66 15.54 18.6 43 50 1008 0 33.6 33.4 60.9 161.0 172.1 597.4
05 11:30 26 63 15.34 18.4 46 59 1008.3 0 33.1 32.8 59.6 157.6 168.0 583.3
05 11:20 27.1 59 15.27 18.4 46 54 1008.5 0 32.9 32.3 58.5 154.6 164.7 571.9
05 11:10 27.1 56 14.49 17.8 48 52 1008.7 0 31.3 31.0 55.4 146.2 154.3 535.6
05 11:00 27 57 14.67 17.8 48 65 1008.6 0 31.7 31.4 56.1 148.3 156.9 544.6
05 10:50 26.9 57 14.59 17.7 44 54 1008.8 0 31.5 31.3 55.9 147.6 156.0 541.6
05 10:40 27.2 55 14.31 17.4 48 57 1008.7 0 30.9 30.7 54.6 144.1 151.7 526.6
05 10:30 27.7 53 14.18 17.3 39 50 1008.9 0 30.6 30.3 53.7 141.8 149.1 517.4
05 10:20 27.4 53 13.95 17 43 48 1008.8 0 30.1 30.1 53.0 139.9 146.7 508.9
05 10:10 27.1 54 13.98 17 39 46 1008.9 0 30.2 30.2 53.3 140.7 147.6 512.3
05 10:00 26.4 56 13.94 16.9 33 41 1008.9 0 30.2 30.4 53.6 141.6 148.4 515.0
05 09:50 25.9 58 14.04 17 33 39 1009 0 30.4 30.7 54.4 143.6 150.7 523.0
05 09:40 25.4 59 13.89 16.8 39 44 1009.1 0 30.1 30.7 54.1 142.9 149.7 519.4
05 09:30 25.4 59 13.89 16.8 41 52 1009 0 30.1 30.7 54.1 142.9 149.7 519.3
05 09:20 25.6 56 13.33 16.4 41 50 1009 0 28.9 29.7 51.7 136.5 141.9 492.2
05 09:10 25.8 56 13.48 16.4 41 48 1008.6 0 29.2 29.8 52.2 137.7 143.5 497.7
05 09:00 25.7 55 13.17 16 39 48 1008.4 0 28.6 29.4 51.0 134.5 139.6 484.1
05 08:50 26 53 12.9 15.7 39 43 1008.3 0 28.0 28.8 49.7 131.2 135.6 470.1
05 08:40 25.9 53 12.83 15.6 39 44 1007.7 0 27.9 28.7 49.5 130.6 134.8 467.3
05 08:30 26 53 12.9 15.7 39 50 1007.7 0 28.0 28.8 49.7 131.1 135.5 469.9
05 08:20 26 53 12.9 15.7 37 44 1007.8 0 28.0 28.8 49.7 131.1 135.5 469.9
05 08:10 25.9 53 12.83 15.6 43 48 1007.4 0 27.9 28.7 49.5 130.5 134.8 467.2
05 08:00 26 52 12.66 15.4 37 50 1006.9 0 27.5 28.4 48.7 128.5 132.4 458.9
05 07:50 26 52 12.66 15.4 43 52 1006.7 0 27.5 28.4 48.7 128.5 132.4 458.8
05 07:40 26.1 52 12.73 15.5 46 54 1006.5 0 27.7 28.5 48.9 129.1 133.1 461.3
05 07:30 26.3 49 12.13 15 41 52 1006.2 0 26.4 27.5 46.5 122.6 125.1 433.6
05 07:20 26.5 49 12.27 14.9 44 50 1006.2 0 26.7 27.6 46.9 123.7 126.6 438.6
05 07:10 26.9 46 11.77 14.3 43 48 1005.7 0 25.6 26.7 44.8 118.0 119.7 414.8
05 07:00 27.2 44 11.45 13.9 37 48 1005.5 0 24.9 26.1 43.4 114.4 115.4 399.6
05 06:50 27.2 44 11.45 13.9 43 46 1005.4 0 24.9 26.1 43.4 114.4 115.4 399.6
05 06:40 27.3 43 11.25 13.6 39 44 1004.8 0 24.5 25.8 42.6 112.2 112.8 390.5
05 06:30 27.4 42 11.05 13.4 39 48 1004.6 0 24.1 25.5 41.8 110.1 110.2 381.6
05 06:20 27.5 41 10.85 13.4 44 48 1004.4 0 23.6 25.1 41.0 108.1 107.7 372.8
05 06:10 27.7 41 10.97 13.3 37 43 1004.2 0 23.9 25.3 41.4 108.9 108.8 376.8
05 06:00 27.8 40 10.76 13 39 52 1003.8 0 23.4 24.9 40.5 106.7 106.2 367.6
05 05:50 27.9 39 10.55 12.7 39 46 1003.7 0 23.0 24.6 39.7 104.6 103.6 358.5
05 05:40 28.1 37 10.12 12.4 37 46 1003.7 0 22.1 23.9 38.1 100.4 98.4 340.4
05 05:30 28.1 38 10.39 12.5 37 48 1003.6 0 22.7 24.3 39.1 102.9 101.5 351.2
05 05:20 28.3 37 10.23 12.2 43 48 1003.5 0 22.3 24.0 38.4 101.1 99.4 343.9
05 05:10 28.4 36 10.01 11.9 44 54 1003.3 0 21.9 23.7 37.6 98.9 96.8 334.7
05 04:50 29.2 33 9.58 11.3 43 48 1003.3 0 20.9 22.9 35.8 94.1 91.0 314.7
05 04:40 29.5 31 9.15 10.6 43 54 1003.4 0 20.0 22.2 34.2 90.0 86.0 297.1
05 04:30 30.8 27 8.55 9.6 28 44 1003.6 0 18.7 21.1 31.8 83.5 78.4 270.3
05 04:20 30.9 26 8.28 9.2 20 22 1003.7 0 18.2 20.8 30.9 81.1 75.5 260.2
05 04:10 31 25 8 8.7 24 26 1003.4 0 17.6 20.4 30.0 78.6 72.5 249.7
05 04:00 31.4 24 7.85 8.4 26 35 1003.7 0 17.2 20.1 29.4 77.1 70.6 243.3
05 03:50 31.7 24 7.98 8.7 33 39 1003.6 0 17.5 20.2 29.7 77.8 71.7 247.0
05 03:40 30.2 22 6.75 6.1 15 15 1003.5 0 15.0 19.0 26.5 69.2 60.6 207.8
05 03:30 30.3 22 6.78 6.2 15 17 1003.3 0 15.1 19.0 26.5 69.3 60.8 208.6
05 03:20 30.2 22 6.75 6.1 15 15 1002.9 0 15.0 19.0 26.4 69.1 60.6 207.7
05 03:10 30.2 22 6.75 6.1 15 15 1003.2 0 15.0 19.0 26.5 69.1 60.6 207.8
05 03:00 30 23 6.98 6.6 9 11 1003.1 0 15.5 19.3 27.2 71.2 63.0 216.3
05 02:50 30.2 22 6.75 6.1 11 11 1002.8 0 15.0 19.0 26.4 69.1 60.6 207.7
05 02:40 30.7 22 6.93 6.6 9 11 1002.8 0 15.4 19.1 26.8 70.1 62.0 212.7
05 02:30 30.8 21 6.65 6 11 11 1002.8 0 14.8 18.7 26.0 67.8 59.1 202.8
05 02:20 30.7 21 6.61 5.9 9 11 1002.8 0 14.7 18.7 25.9 67.6 58.8 201.7
05 02:10 30.6 21 6.58 5.8 11 11 1002.7 0 14.7 18.7 25.8 67.4 58.6 200.9
05 02:00 30.6 21 6.58 5.8 11 11 1002.8 0 14.7 18.7 25.8 67.4 58.6 200.9
05 01:50 30.5 22 6.86 6.4 11 11 1002.8 0 15.2 19.1 26.7 69.7 61.4 210.8
05 01:40 30.7 21 6.61 5.9 9 9 1002.9 0 14.7 18.7 25.9 67.6 58.8 201.7
05 01:30 30.7 21 6.61 5.9 9 11 1003.1 0 14.7 18.7 25.9 67.6 58.8 201.7
05 01:20 30.8 21 6.65 6 11 11 1002.9 0 14.8 18.7 26.0 67.8 59.1 202.8
05 01:10 30.6 21 6.58 5.8 9 11 1003.2 0 14.7 18.7 25.8 67.5 58.6 201.0
05 01:00 31 21 6.72 6.1 9 11 1003.4 0 14.9 18.8 26.1 68.3 59.7 204.8
05 00:50 31.1 20 6.44 5.5 6 9 1003.4 0 14.4 18.5 25.3 66.0 56.9 195.1
05 00:40 31.2 21 6.79 6.3 0 0 1003.5 0 15.1 18.9 26.3 68.7 60.3 206.8
05 00:30 30.9 21 6.69 6 9 11 1003.6 0 14.9 18.8 26.1 68.1 59.5 204.1
05 00:20 31 21 6.72 6.1 11 11 1003.7 0 14.9 18.8 26.1 68.3 59.7 204.9
05 00:10 31.3 20 6.51 5.7 13 15 1003.8 0 14.5 18.5 25.4 66.4 57.5 197.0
05 00:00 31.4 20 6.54 5.8 13 15 1004 0 14.6 18.5 25.5 66.6 57.7 197.9
04 23:50 32 20 6.75 6.2 11 11 1004.3 0 15.0 18.7 25.9 67.8 59.3 203.6
04 23:40 32 20 6.75 6.2 9 9 1004.4 0 15.0 18.7 25.9 67.8 59.3 203.6
04 23:30 31.9 20 6.72 6.2 9 11 1004.5 0 14.9 18.7 25.9 67.6 59.1 202.9
04 23:20 32.1 20 6.79 6.3 11 11 1004.8 0 15.0 18.7 26.0 68.1 59.7 204.8
04 23:10 31.9 20 6.72 6.2 9 11 1004.8 0 14.9 18.7 25.9 67.7 59.2 202.9
04 23:00 31.9 20 6.72 6.2 11 15 1004.7 0 14.9 18.7 25.9 67.7 59.1 202.9
04 22:50 32.9 19 6.73 6.2 7 9 1004.8 0 14.9 18.5 25.6 67.0 58.5 200.9
04 22:40 32.5 19 6.59 5.9 9 9 1005 0 14.6 18.4 25.3 66.2 57.5 197.2
04 22:30 32.8 19 6.69 6.2 6 7 1004.9 0 14.8 18.5 25.5 66.7 58.2 199.8
04 22:20 32.3 19 6.52 5.7 6 6 1005 0 14.5 18.4 25.2 65.8 57.0 195.3
04 22:10 32.6 19 6.62 6 9 9 1005.1 0 14.7 18.4 25.4 66.4 57.7 198.0
04 22:00 33 18 6.41 5.5 7 9 1004.9 0 14.2 18.1 24.7 64.4 55.5 190.0
04 21:50 33.1 18 6.44 5.6 7 7 1005.3 0 14.3 18.1 24.7 64.6 55.7 190.9
04 21:40 33.4 18 6.55 5.9 11 11 1005.3 0 14.5 18.2 25.0 65.2 56.5 193.8
04 21:30 33.8 18 6.69 6.2 13 17 1005.2 0 14.8 18.3 25.3 66.0 57.6 197.5
04 21:20 33.2 18 6.48 5.7 11 11 1005.3 0 14.4 18.2 24.8 64.8 56.0 192.0
04 21:10 34 17 6.38 5.5 11 11 1005.2 0 14.1 17.9 24.3 63.5 54.5 186.9
04 21:00 34.2 17 6.45 5.7 9 11 1005.3 0 14.3 17.9 24.5 63.9 55.1 188.8
04 20:50 34.4 17 6.52 5.8 7 9 1005.4 0 14.4 18.0 24.6 64.2 55.6 190.6
04 20:40 34.5 16 6.17 5 7 7 1005.5 0 13.7 17.6 23.6 61.6 52.3 179.0
04 20:30 35 16 6.33 5.4 7 9 1005.4 0 14.0 17.7 23.9 62.4 53.4 183.1
04 20:20 35.1 15 5.96 4.6 7 9 1005.7 0 13.2 17.2 22.9 59.6 50.0 171.1
04 20:10 35.4 15 6.06 4.8 9 9 1005.6 0 13.4 17.3 23.1 60.1 50.8 173.7

Last Refresh: 05-Dec-2020 13:02:57

Most of the information presented on this site is sourced from the Bureau of Meteorology.  Copyright in all material sourced from the Bureau of Meteorology resides with the Commonwealth of Australia.